Time;durP1;ratioP1;P1;durP2;ratioP2;P2;SDS_P1;SDS_P2;PMS_P1;PMS_P2;Temp;Humidity;BMP_temperature;BMP_pressure;BME280_temperature;BME280_humidity;BME280_pressure;Samples;Min_cycle;Max_cycle;Signal;HPM_P1;HPM_P2
2022/05/18 00:00:07;;;;;;;3.97;3.23;;;23.90;51.30;;;;;;5095011;28;20498;-64
2022/05/18 00:02:33;;;;;;;3.90;3.60;;;23.90;51.30;;;;;;5094853;28;20862;-65
2022/05/18 00:04:59;;;;;;;4.28;3.80;;;23.80;51.20;;;;;;5094625;28;20390;-65
2022/05/18 00:07:24;;;;;;;3.80;3.40;;;23.80;51.20;;;;;;5094546;28;20382;-65
2022/05/18 00:09:51;;;;;;;3.70;3.30;;;23.90;51.20;;;;;;5094627;28;20708;-65
2022/05/18 00:12:17;;;;;;;3.85;3.45;;;23.80;51.20;;;;;;5094702;28;20434;-65
2022/05/18 00:14:43;;;;;;;3.63;3.33;;;23.80;51.20;;;;;;5094530;28;20436;-65
2022/05/18 00:17:09;;;;;;;4.32;3.63;;;23.80;51.20;;;;;;5094112;28;20370;-65
2022/05/18 00:19:35;;;;;;;3.60;3.30;;;23.80;51.20;;;;;;5094587;28;20473;-65
2022/05/18 00:22:01;;;;;;;4.15;3.50;;;23.80;51.20;;;;;;5094524;28;20382;-65
2022/05/18 00:24:27;;;;;;;4.03;3.63;;;23.80;51.20;;;;;;5094430;28;20866;-65
2022/05/18 00:26:53;;;;;;;3.80;3.42;;;23.80;51.20;;;;;;5094507;28;20385;-65
2022/05/18 00:29:19;;;;;;;3.80;3.30;;;23.80;51.20;;;;;;5093889;28;20416;-65
2022/05/18 00:31:46;;;;;;;4.30;3.37;;;23.80;51.20;;;;;;5094273;28;20896;-65
2022/05/18 00:34:13;;;;;;;3.60;3.30;;;23.80;51.20;;;;;;5094250;28;20453;-65
2022/05/18 00:36:39;;;;;;;4.47;3.58;;;23.80;51.20;;;;;;5094337;28;20518;-65
2022/05/18 00:39:05;;;;;;;4.15;3.42;;;23.80;51.20;;;;;;5093564;28;20866;-65
2022/05/18 00:41:31;;;;;;;3.50;3.20;;;23.80;51.10;;;;;;5094399;28;20742;-65
2022/05/18 00:43:58;;;;;;;3.80;3.40;;;23.80;51.00;;;;;;5094189;28;20390;-65
2022/05/18 00:46:24;;;;;;;3.85;3.33;;;23.80;51.10;;;;;;5094021;28;20387;-65
2022/05/18 00:48:52;;;;;;;3.40;3.10;;;23.80;51.00;;;;;;5094041;28;20390;-65
2022/05/18 00:51:21;;;;;;;4.03;3.35;;;23.70;50.90;;;;;;5093193;28;20412;-65
2022/05/18 00:54:11;;;;;;;3.60;3.30;;;23.70;51.00;;;;;;5093007;28;20497;-65
2022/05/18 00:56:51;;;;;;;3.55;3.25;;;23.70;51.00;;;;;;5084001;28;21070;-65
2022/05/18 00:59:22;;;;;;;3.35;3.05;;;23.70;51.00;;;;;;5093410;28;20734;-65
2022/05/18 01:01:48;;;;;;;3.63;3.33;;;23.70;51.00;;;;;;5093809;28;20460;-65
2022/05/18 01:04:15;;;;;;;3.78;3.20;;;23.70;51.00;;;;;;5093855;28;20391;-65
2022/05/18 01:06:50;;;;;;;3.95;3.28;;;23.70;51.00;;;;;;5093737;28;20382;-65
2022/05/18 01:09:32;;;;;;;4.10;3.30;;;23.70;51.00;;;;;;5093277;28;20389;-65
2022/05/18 01:11:58;;;;;;;3.97;3.43;;;23.70;51.00;;;;;;5093630;28;20378;-64
2022/05/18 01:14:30;;;;;;;3.75;3.45;;;23.70;51.00;;;;;;5093534;28;20405;-65
2022/05/18 01:16:56;;;;;;;3.53;3.22;;;23.70;51.00;;;;;;5093526;28;20378;-65
2022/05/18 01:19:44;;;;;;;3.83;3.53;;;23.70;51.00;;;;;;5093206;28;20418;-64
2022/05/18 01:22:37;;;;;;;4.22;3.83;;;23.70;51.00;;;;;;5093467;28;20389;-65
2022/05/18 01:25:36;;;;;;;3.72;3.30;;;23.70;50.90;;;;;;5093020;28;20381;-65
2022/05/18 01:28:04;;;;;;;4.53;3.60;;;23.70;51.00;;;;;;5093262;28;20386;-65
2022/05/18 01:30:30;;;;;;;4.15;3.30;;;23.70;51.00;;;;;;5093167;28;20524;-65
2022/05/18 01:32:58;;;;;;;3.90;3.42;;;23.70;51.00;;;;;;5091826;28;20422;-64
2022/05/18 01:35:29;;;;;;;4.28;3.55;;;23.70;51.00;;;;;;5091380;28;20476;-65
2022/05/18 01:37:59;;;;;;;3.80;3.40;;;23.70;50.90;;;;;;5092908;28;20397;-64
2022/05/18 01:40:45;;;;;;;3.75;3.38;;;23.70;50.90;;;;;;5092947;28;20394;-65
2022/05/18 01:43:32;;;;;;;3.70;3.40;;;23.60;50.90;;;;;;5092548;28;20389;-65
2022/05/18 01:46:00;;;;;;;3.90;3.50;;;23.60;50.90;;;;;;5092957;28;20422;-64
2022/05/18 01:48:36;;;;;;;3.70;3.30;;;23.60;50.90;;;;;;5092793;28;20880;-65
2022/05/18 01:51:04;;;;;;;3.60;3.30;;;23.60;50.80;;;;;;5092271;28;20410;-65
2022/05/18 01:53:31;;;;;;;3.60;3.30;;;23.60;50.80;;;;;;5092481;28;20413;-65
2022/05/18 01:55:56;;;;;;;4.53;3.85;;;23.60;50.80;;;;;;5092779;28;20873;-64
2022/05/18 01:58:23;;;;;;;3.78;3.45;;;23.60;50.80;;;;;;5091225;28;20440;-65
2022/05/18 02:00:50;;;;;;;3.95;3.55;;;23.60;50.80;;;;;;5092684;28;20386;-65
2022/05/18 02:03:16;;;;;;;4.00;3.60;;;23.60;50.80;;;;;;5091768;28;20397;-65
2022/05/18 02:05:43;;;;;;;3.85;3.42;;;23.60;50.80;;;;;;5092394;28;20374;-65
2022/05/18 02:08:10;;;;;;;3.97;3.50;;;23.60;50.80;;;;;;5092412;28;20386;-64
2022/05/18 02:10:36;;;;;;;3.95;3.60;;;23.60;50.80;;;;;;5092332;28;20374;-64
2022/05/18 02:13:03;;;;;;;4.13;3.50;;;23.60;50.80;;;;;;5092103;28;20490;-64
2022/05/18 02:15:29;;;;;;;3.55;3.25;;;23.60;50.70;;;;;;5092074;28;20469;-64
2022/05/18 02:17:55;;;;;;;4.07;3.60;;;23.60;50.80;;;;;;5092345;28;20964;-64
2022/05/18 02:20:21;;;;;;;3.95;3.08;;;23.60;50.70;;;;;;5092170;28;20386;-64
2022/05/18 02:22:47;;;;;;;4.43;3.60;;;23.60;50.80;;;;;;5092118;28;20389;-65
2022/05/18 02:25:13;;;;;;;4.00;3.60;;;23.60;50.90;;;;;;5091608;28;20385;-64
2022/05/18 02:27:39;;;;;;;4.65;3.58;;;23.50;50.80;;;;;;5090820;28;20443;-65
2022/05/18 02:30:07;;;;;;;4.00;3.60;;;23.60;50.70;;;;;;5092100;28;20955;-64
2022/05/18 02:32:33;;;;;;;3.80;3.40;;;23.50;50.60;;;;;;5091963;28;20417;-64
2022/05/18 02:34:58;;;;;;;4.17;3.63;;;23.60;50.70;;;;;;5092026;28;20386;-65
2022/05/18 02:37:24;;;;;;;3.90;3.60;;;23.50;50.60;;;;;;5091464;28;20473;-64
2022/05/18 02:39:50;;;;;;;4.00;3.60;;;23.60;50.70;;;;;;5091937;28;20414;-65
2022/05/18 02:42:15;;;;;;;4.13;3.72;;;23.60;50.60;;;;;;5091887;28;20386;-65
2022/05/18 02:44:41;;;;;;;3.90;3.60;;;23.50;50.50;;;;;;5091694;28;20781;-65
2022/05/18 02:47:06;;;;;;;4.00;3.60;;;23.50;50.60;;;;;;5090325;28;20447;-65
2022/05/18 02:49:32;;;;;;;4.32;3.92;;;23.50;50.50;;;;;;5091474;28;20378;-65
2022/05/18 02:51:59;;;;;;;3.87;3.57;;;23.50;50.60;;;;;;5091530;28;20928;-65
2022/05/18 02:57:09;;;;;;;4.20;3.72;;;23.50;50.60;;;;;;5091310;28;20457;-65
2022/05/18 02:59:35;;;;;;;3.92;3.47;;;23.50;50.50;;;;;;5091296;28;20878;-65
2022/05/18 03:02:01;;;;;;;3.85;3.55;;;23.50;50.50;;;;;;5091813;28;20435;-65
2022/05/18 03:04:29;;;;;;;4.00;3.53;;;23.50;50.50;;;;;;5091416;28;20416;-65
2022/05/18 03:06:55;;;;;;;5.25;3.75;;;23.50;50.50;;;;;;5091505;28;20389;-64
2022/05/18 03:09:21;;;;;;;4.03;3.37;;;23.50;50.90;;;;;;5090892;28;20946;-64
2022/05/18 03:11:47;;;;;;;6.50;5.78;;;23.50;51.30;;;;;;5091528;28;20389;-64
2022/05/18 03:14:13;;;;;;;7.28;6.47;;;23.50;52.10;;;;;;5090230;28;20417;-64
2022/05/18 03:16:40;;;;;;;8.43;5.33;;;23.50;53.90;;;;;;5091048;28;20384;-65
2022/05/18 03:19:06;;;;;;;5.97;4.90;;;23.60;53.70;;;;;;5091300;28;20386;-65
2022/05/18 03:24:16;;;;;;;5.82;4.30;;;23.60;53.90;;;;;;5092280;28;20861;-65
2022/05/18 03:26:44;;;;;;;4.70;4.20;;;23.60;53.50;;;;;;5091300;28;20894;-64
2022/05/18 03:29:10;;;;;;;6.68;4.28;;;23.60;53.60;;;;;;5091155;28;20451;-64
2022/05/18 03:31:35;;;;;;;5.57;4.30;;;23.70;53.30;;;;;;5091072;28;20385;-64
2022/05/18 03:34:01;;;;;;;8.43;4.00;;;23.70;53.60;;;;;;5091330;28;20509;-65
2022/05/18 03:36:27;;;;;;;6.63;3.95;;;23.70;53.70;;;;;;5091256;28;20469;-65
2022/05/18 03:38:54;;;;;;;5.28;3.80;;;23.70;53.50;;;;;;5091349;28;20413;-65
2022/05/18 03:41:20;;;;;;;5.07;3.63;;;23.70;53.00;;;;;;5090774;28;20435;-64
2022/05/18 03:43:46;;;;;;;4.80;3.70;;;23.70;53.60;;;;;;5091497;28;20478;-65
2022/05/18 03:46:13;;;;;;;4.90;3.85;;;23.70;53.50;;;;;;5091283;28;20447;-65
2022/05/18 03:48:39;;;;;;;5.93;3.90;;;23.70;53.40;;;;;;5091099;28;20433;-65
2022/05/18 03:51:07;;;;;;;4.75;3.67;;;23.70;53.50;;;;;;5090973;28;20397;-65
2022/05/18 03:53:34;;;;;;;7.10;3.53;;;23.70;53.50;;;;;;5090866;28;20508;-65
2022/05/18 03:56:01;;;;;;;5.38;3.70;;;23.70;53.30;;;;;;5091225;28;20378;-65
2022/05/18 03:58:27;;;;;;;5.03;3.42;;;23.70;53.20;;;;;;5090949;28;20746;-65
2022/05/18 04:00:55;;;;;;;3.88;3.30;;;23.70;52.20;;;;;;5090943;28;20892;-65
2022/05/18 04:03:24;;;;;;;4.88;3.40;;;23.60;52.00;;;;;;5090659;28;20433;-65
2022/05/18 04:05:51;;;;;;;7.00;3.40;;;23.60;51.80;;;;;;5090819;28;20438;-64
2022/05/18 04:08:18;;;;;;;4.47;3.40;;;23.60;51.70;;;;;;5089696;28;20417;-64
2022/05/18 04:10:44;;;;;;;5.88;3.97;;;23.60;51.60;;;;;;5091045;28;20374;-64
2022/05/18 04:13:18;;;;;;;7.38;4.30;;;23.50;50.40;;;;;;5090725;28;20417;-64
2022/05/18 04:15:44;;;;;;;5.85;4.10;;;23.50;49.80;;;;;;5090937;28;20858;-64
2022/05/18 04:18:10;;;;;;;8.77;4.20;;;23.40;49.70;;;;;;5090897;28;20378;-64
2022/05/18 04:20:36;;;;;;;5.57;3.97;;;23.40;49.50;;;;;;5091090;28;20879;-64
2022/05/18 04:23:01;;;;;;;5.97;4.10;;;23.30;49.50;;;;;;5090902;28;20925;-65
2022/05/18 04:25:29;;;;;;;8.75;4.20;;;23.30;49.70;;;;;;5090389;28;20398;-65
2022/05/18 04:27:55;;;;;;;7.00;4.10;;;23.40;49.80;;;;;;5091474;28;20531;-64
2022/05/18 04:30:24;;;;;;;6.75;4.07;;;23.40;49.80;;;;;;5094822;28;20431;-65
2022/05/18 04:32:51;;;;;;;5.60;4.07;;;23.40;49.80;;;;;;5100380;28;20487;-65
2022/05/18 04:35:19;;;;;;;5.60;3.92;;;23.40;50.00;;;;;;5106508;28;20475;-65
2022/05/18 04:37:45;;;;;;;4.90;4.07;;;23.40;50.00;;;;;;5108119;28;20376;-65
2022/05/18 04:40:11;;;;;;;4.65;4.00;;;23.40;50.00;;;;;;5106152;28;20382;-65
2022/05/18 04:42:37;;;;;;;5.10;3.95;;;23.40;50.10;;;;;;5114605;28;20943;-65
2022/05/18 04:45:04;;;;;;;4.63;3.90;;;23.40;50.10;;;;;;5114378;28;20384;-64
2022/05/18 04:47:30;;;;;;;6.03;4.00;;;23.40;50.20;;;;;;5114045;28;20382;-65
2022/05/18 04:49:57;;;;;;;5.30;4.10;;;23.40;50.30;;;;;;5114483;28;20400;-65
2022/05/18 04:52:23;;;;;;;4.93;3.80;;;23.40;50.20;;;;;;5114158;28;20403;-64
2022/05/18 04:54:49;;;;;;;6.30;3.83;;;23.40;50.40;;;;;;5114234;28;20396;-65
2022/05/18 04:57:15;;;;;;;13.63;4.50;;;23.40;50.60;;;;;;5114126;28;20388;-64
2022/05/18 04:59:41;;;;;;;9.10;4.30;;;23.40;51.20;;;;;;5108824;28;20509;-65
2022/05/18 05:02:07;;;;;;;10.90;6.63;;;23.40;51.40;;;;;;5110185;28;20441;-65
2022/05/18 05:04:35;;;;;;;9.05;5.35;;;23.50;53.20;;;;;;5093826;28;20501;-65
2022/05/18 05:07:00;;;;;;;10.98;5.05;;;23.50;52.70;;;;;;5093612;28;20452;-65
2022/05/18 05:09:26;;;;;;;11.18;5.53;;;23.60;52.30;;;;;;5091536;28;20444;-65
2022/05/18 05:11:53;;;;;;;10.57;4.82;;;23.60;52.30;;;;;;5093468;28;20386;-64
2022/05/18 05:14:19;;;;;;;11.75;4.85;;;23.60;52.60;;;;;;5093478;28;20419;-65
2022/05/18 05:16:45;;;;;;;9.27;4.57;;;23.60;52.30;;;;;;5093514;28;20385;-65
2022/05/18 05:19:12;;;;;;;7.25;4.20;;;23.60;52.40;;;;;;5093445;28;20394;-65
2022/05/18 05:21:42;;;;;;;11.80;4.70;;;23.60;52.30;;;;;;5092980;28;20391;-65
2022/05/18 05:24:12;;;;;;;8.15;4.60;;;23.60;52.40;;;;;;5093364;28;20386;-65
2022/05/18 05:26:39;;;;;;;8.13;4.65;;;23.60;52.40;;;;;;5093487;28;20393;-64
2022/05/18 05:29:05;;;;;;;8.20;4.40;;;23.60;52.30;;;;;;5093305;28;20750;-64
2022/05/18 05:31:31;;;;;;;6.47;4.10;;;23.70;52.30;;;;;;5092929;28;20401;-65
2022/05/18 05:33:57;;;;;;;7.35;4.05;;;23.70;51.90;;;;;;5093155;28;20493;-64
2022/05/18 05:36:23;;;;;;;9.02;4.30;;;23.60;51.70;;;;;;5093003;28;20417;-65
2022/05/18 05:38:49;;;;;;;9.98;4.32;;;23.70;52.30;;;;;;5092774;28;20481;-65
2022/05/18 05:41:16;;;;;;;7.93;4.35;;;23.70;52.50;;;;;;5099665;28;20420;-65
2022/05/18 05:43:41;;;;;;;9.20;4.47;;;23.70;51.90;;;;;;5092405;28;20488;-65
2022/05/18 05:46:10;;;;;;;8.18;4.20;;;23.70;52.00;;;;;;5092763;28;20420;-65
2022/05/18 05:48:36;;;;;;;6.55;3.90;;;23.60;51.90;;;;;;5092665;28;20393;-65
2022/05/18 05:51:04;;;;;;;7.78;3.88;;;23.60;51.70;;;;;;5084592;28;20390;-65
2022/05/18 05:53:32;;;;;;;7.45;3.72;;;23.60;51.70;;;;;;5092032;28;20414;-65
2022/05/18 05:55:58;;;;;;;7.45;3.80;;;23.60;51.50;;;;;;5092620;28;20378;-65
2022/05/18 05:58:26;;;;;;;9.27;3.90;;;23.70;51.60;;;;;;5092528;28;20386;-65
2022/05/18 06:00:52;;;;;;;6.82;4.05;;;23.60;51.40;;;;;;5086104;28;20750;-65
2022/05/18 06:03:19;;;;;;;7.90;3.92;;;23.60;51.40;;;;;;5071980;28;20380;-65
2022/05/18 06:05:45;;;;;;;7.40;3.70;;;23.70;52.00;;;;;;5071927;28;20384;-65
2022/05/18 06:08:11;;;;;;;5.30;3.88;;;23.60;51.40;;;;;;5072191;28;20391;-65
2022/05/18 06:10:38;;;;;;;7.43;4.00;;;23.70;51.50;;;;;;5071835;28;20407;-65
2022/05/18 06:13:08;;;;;;;5.25;4.00;;;23.70;51.20;;;;;;5071984;28;20422;-65
2022/05/18 06:15:34;;;;;;;5.97;4.03;;;23.70;51.20;;;;;;5071580;28;20380;-65
2022/05/18 06:18:00;;;;;;;6.68;3.70;;;23.70;51.20;;;;;;5071959;28;20383;-65
2022/05/18 06:20:26;;;;;;;5.20;4.20;;;23.70;51.20;;;;;;5071632;28;20384;-65
2022/05/18 06:22:52;;;;;;;4.65;3.58;;;23.70;51.20;;;;;;5071792;28;20403;-65
2022/05/18 06:25:18;;;;;;;5.45;3.40;;;23.70;51.20;;;;;;5053487;28;20391;-65
2022/05/18 06:27:44;;;;;;;7.57;3.93;;;23.70;51.20;;;;;;5071561;28;20800;-64
2022/05/18 06:30:12;;;;;;;7.00;4.45;;;23.70;51.20;;;;;;5071770;28;20384;-64
2022/05/18 06:32:38;;;;;;;8.90;4.07;;;23.70;51.40;;;;;;5071403;28;20415;-64
2022/05/18 06:35:04;;;;;;;9.63;4.47;;;23.80;51.30;;;;;;5071649;28;20906;-65
2022/05/18 06:37:30;;;;;;;6.75;3.80;;;23.80;51.10;;;;;;5053053;28;20395;-65
2022/05/18 06:39:55;;;;;;;5.47;3.63;;;23.80;51.10;;;;;;5071674;28;20887;-64
2022/05/18 06:42:21;;;;;;;5.60;4.30;;;23.80;51.10;;;;;;5071354;28;20768;-64
2022/05/18 06:44:47;;;;;;;5.38;3.70;;;23.80;51.00;;;;;;5071386;28;20387;-65
2022/05/18 06:47:13;;;;;;;5.73;3.70;;;23.80;51.00;;;;;;5071401;28;20380;-65
2022/05/18 06:49:40;;;;;;;5.35;3.85;;;23.80;50.90;;;;;;5071036;28;20461;-65
2022/05/18 06:52:07;;;;;;;7.28;3.70;;;23.80;51.00;;;;;;5084968;28;20436;-64
2022/05/18 06:54:32;;;;;;;7.28;3.92;;;23.80;50.80;;;;;;5091239;28;20861;-64
2022/05/18 06:56:58;;;;;;;6.05;3.88;;;23.80;50.90;;;;;;5091584;28;20457;-64
2022/05/18 06:59:24;;;;;;;5.03;3.60;;;23.80;50.80;;;;;;5091105;28;20486;-64
2022/05/18 07:01:49;;;;;;;4.97;3.90;;;23.80;51.00;;;;;;5091661;28;20374;-64
2022/05/18 07:04:15;;;;;;;4.97;4.10;;;23.80;50.70;;;;;;5091618;28;20390;-64
2022/05/18 07:06:42;;;;;;;5.25;3.97;;;23.80;50.80;;;;;;5090077;28;21080;-64
2022/05/18 07:09:15;;;;;;;5.50;4.05;;;23.80;50.80;;;;;;5091464;28;20392;-64
2022/05/18 07:11:46;;;;;;;4.07;3.42;;;23.80;50.70;;;;;;5090933;28;20386;-65
2022/05/18 07:14:12;;;;;;;5.25;3.70;;;23.80;50.60;;;;;;5091314;28;20413;-65
2022/05/18 07:16:40;;;;;;;5.10;3.67;;;23.80;50.60;;;;;;5090051;28;20862;-64
2022/05/18 07:19:06;;;;;;;4.82;3.90;;;23.80;50.70;;;;;;5091458;28;20406;-64
2022/05/18 07:21:32;;;;;;;4.68;3.60;;;23.80;50.80;;;;;;5090719;28;20386;-64
2022/05/18 07:23:58;;;;;;;5.05;3.50;;;23.80;50.90;;;;;;5089802;28;20394;-64
2022/05/18 07:26:26;;;;;;;4.00;3.60;;;23.80;50.90;;;;;;5091247;28;20384;-64
2022/05/18 07:28:52;;;;;;;5.22;3.80;;;23.80;50.90;;;;;;5089756;28;20493;-64
2022/05/18 07:31:19;;;;;;;10.82;9.00;;;23.80;50.90;;;;;;5090664;28;20386;-65
2022/05/18 07:33:47;;;;;;;10.77;9.67;;;23.90;53.50;;;;;;5090935;28;20520;-64
2022/05/18 07:36:13;;;;;;;7.30;4.90;;;23.90;54.40;;;;;;5091274;28;20382;-65
2022/05/18 07:38:40;;;;;;;6.65;4.50;;;23.90;53.40;;;;;;5089893;28;20391;-64
2022/05/18 07:41:08;;;;;;;5.97;4.30;;;23.90;52.60;;;;;;5091355;28;20374;-64
2022/05/18 07:43:34;;;;;;;5.90;4.20;;;23.90;52.30;;;;;;5089455;28;20770;-64
2022/05/18 07:45:59;;;;;;;5.25;4.18;;;23.90;52.00;;;;;;5091097;28;20381;-64
2022/05/18 07:48:26;;;;;;;4.40;3.60;;;23.90;51.80;;;;;;5091254;28;20382;-64
2022/05/18 07:50:52;;;;;;;5.30;3.78;;;23.90;51.70;;;;;;5090911;28;20459;-64
2022/05/18 07:53:18;;;;;;;6.53;4.05;;;24.00;51.80;;;;;;5090879;28;20816;-64
2022/05/18 07:55:45;;;;;;;62.25;53.28;;;24.00;51.80;;;;;;5090700;28;20416;-64
2022/05/18 07:58:13;;;;;;;751.20;525.00;;;24.00;51.90;;;;;;5090840;28;20439;-64
2022/05/18 08:00:40;;;;;;;1572.93;679.67;;;24.10;52.50;;;;;;5093883;28;20447;-65
2022/05/18 08:03:12;;;;;;;958.15;481.80;;;24.20;52.40;;;;;;5099665;28;20443;-64
2022/05/18 08:05:42;;;;;;;821.53;406.10;;;24.20;53.50;;;;;;5099739;28;20431;-65
2022/05/18 08:08:12;;;;;;;652.92;329.33;;;24.30;54.40;;;;;;5107864;28;20374;-65
2022/05/18 08:16:12;;;;;;;479.60;222.93;;;24.40;54.60;;;;;;5101770;28;20445;-65
2022/05/18 08:18:38;;;;;;;460.08;214.02;;;24.30;54.60;;;;;;5102261;28;20392;-65
2022/05/18 08:21:04;;;;;;;456.92;206.68;;;24.40;53.70;;;;;;5103252;28;20384;-65
2022/05/18 08:23:30;;;;;;;443.42;196.68;;;24.40;53.40;;;;;;5104542;28;20397;-65
2022/05/18 08:25:56;;;;;;;409.35;182.82;;;24.30;53.10;;;;;;5094353;28;20928;-65
2022/05/18 08:28:23;;;;;;;418.63;181.38;;;24.40;52.70;;;;;;5094070;28;20397;-65
2022/05/18 08:30:49;;;;;;;398.40;174.82;;;24.30;52.50;;;;;;5094229;28;20382;-65
2022/05/18 08:33:14;;;;;;;382.38;169.32;;;24.30;52.50;;;;;;5093999;28;20422;-65
2022/05/18 08:35:43;;;;;;;367.10;161.07;;;24.30;52.30;;;;;;5093715;28;20374;-65
2022/05/18 08:38:10;;;;;;;348.38;153.27;;;24.30;52.20;;;;;;5093913;28;20394;-65
2022/05/18 08:40:51;;;;;;;335.23;147.27;;;24.30;52.00;;;;;;5093772;28;20444;-65
2022/05/18 08:43:31;;;;;;;325.75;145.18;;;24.30;51.90;;;;;;5092719;28;20418;-65
2022/05/18 08:46:22;;;;;;;311.33;138.98;;;24.30;51.80;;;;;;5092583;28;20874;-65
2022/05/18 08:49:00;;;;;;;292.37;136.00;;;24.20;51.60;;;;;;5093882;28;20386;-65
2022/05/18 08:51:44;;;;;;;285.35;130.52;;;24.20;51.50;;;;;;5093143;28;20397;-65
2022/05/18 08:54:35;;;;;;;264.52;125.40;;;24.20;51.60;;;;;;5092301;28;20421;-65
2022/05/18 08:57:04;;;;;;;257.95;121.13;;;24.20;51.50;;;;;;5093835;28;20386;-65
2022/05/18 08:59:36;;;;;;;237.98;115.68;;;24.20;51.40;;;;;;5093402;28;20382;-65
2022/05/18 09:02:33;;;;;;;225.90;108.55;;;24.30;51.30;;;;;;5093956;28;20473;-65
2022/05/18 09:05:16;;;;;;;221.75;106.18;;;24.20;51.40;;;;;;5081263;28;20412;-65
2022/05/18 09:08:03;;;;;;;219.10;107.93;;;24.20;51.40;;;;;;5093254;28;20893;-65
2022/05/18 09:10:35;;;;;;;211.20;102.57;;;24.20;51.20;;;;;;5093274;28;20383;-65
2022/05/18 09:13:01;;;;;;;201.90;98.85;;;24.20;51.30;;;;;;5093306;28;20417;-65
2022/05/18 09:16:05;;;;;;;192.85;94.47;;;24.20;51.30;;;;;;5092559;28;20390;-65
2022/05/18 09:18:41;;;;;;;182.82;86.00;;;24.20;51.20;;;;;;5093121;28;20931;-65
2022/05/18 09:21:28;;;;;;;181.88;86.68;;;24.20;51.10;;;;;;5093309;28;20425;-65
2022/05/18 09:24:28;;;;;;;168.57;81.20;;;24.20;51.00;;;;;;5093090;28;20374;-65
2022/05/18 09:27:09;;;;;;;159.23;80.90;;;24.20;51.00;;;;;;5093123;28;20465;-65
2022/05/18 09:29:46;;;;;;;156.23;78.82;;;24.20;50.90;;;;;;5092819;28;20413;-65
2022/05/18 09:32:33;;;;;;;154.48;76.95;;;24.20;51.00;;;;;;5092937;28;20390;-64
2022/05/18 09:35:26;;;;;;;143.70;73.60;;;24.20;50.90;;;;;;5093083;28;20413;-65
2022/05/18 09:38:38;;;;;;;152.20;74.22;;;24.20;51.00;;;;;;5092731;28;20504;-65
2022/05/18 09:41:09;;;;;;;136.00;69.85;;;24.20;50.80;;;;;;5067409;28;21031;-65
2022/05/18 09:43:51;;;;;;;131.20;66.70;;;24.20;51.00;;;;;;5091945;28;20439;-65
2022/05/18 09:46:23;;;;;;;130.50;66.33;;;24.20;50.80;;;;;;5092744;28;20462;-64
2022/05/18 09:49:18;;;;;;;131.52;64.95;;;24.20;50.90;;;;;;5092622;28;20874;-64
2022/05/18 09:51:45;;;;;;;123.57;63.45;;;24.20;50.80;;;;;;5091985;28;20401;-65
2022/05/18 09:54:11;;;;;;;118.47;62.03;;;24.20;50.80;;;;;;5092473;28;20425;-65
2022/05/18 09:56:57;;;;;;;109.87;57.80;;;24.20;50.80;;;;;;5092164;28;20391;-65
2022/05/18 09:59:30;;;;;;;106.90;54.88;;;24.20;50.80;;;;;;5111351;28;20399;-65
2022/05/18 10:07:31;;;;;;;97.32;50.40;;;24.20;50.70;;;;;;5112957;28;20379;-64
2022/05/18 10:10:09;;;;;;;89.03;49.33;;;24.20;50.60;;;;;;5111043;28;20392;-65
2022/05/18 10:12:38;;;;;;;94.72;48.42;;;24.20;50.70;;;;;;5110770;28;20380;-65
2022/05/18 10:15:19;;;;;;;90.68;48.13;;;24.20;50.70;;;;;;5093565;28;20905;-65
2022/05/18 10:17:53;;;;;;;81.55;46.38;;;24.20;50.50;;;;;;5092746;28;20402;-64
2022/05/18 10:20:33;;;;;;;83.63;44.83;;;24.20;50.60;;;;;;5091490;28;20397;-65
2022/05/18 10:23:00;;;;;;;81.20;43.83;;;24.20;50.60;;;;;;5090960;28;20427;-66
2022/05/18 10:25:34;;;;;;;78.47;42.55;;;24.20;50.80;;;;;;5090194;28;20481;-65
2022/05/18 10:28:10;;;;;;;76.28;40.58;;;24.20;50.70;;;;;;5091780;28;20447;-65
2022/05/18 10:30:37;;;;;;;73.72;41.55;;;24.20;50.70;;;;;;5091746;28;20455;-66
2022/05/18 10:33:29;;;;;;;70.53;39.58;;;24.20;50.60;;;;;;5091887;28;20455;-66
2022/05/18 10:35:55;;;;;;;69.80;38.20;;;24.20;50.60;;;;;;5090221;28;20394;-66
2022/05/18 10:38:32;;;;;;;69.22;37.65;;;24.20;50.60;;;;;;5091740;28;20862;-66
2022/05/18 10:41:03;;;;;;;68.05;36.15;;;24.20;50.40;;;;;;5091708;28;20416;-65
2022/05/18 10:43:39;;;;;;;62.80;35.43;;;24.20;50.40;;;;;;5091468;28;20437;-65
2022/05/18 10:46:15;;;;;;;58.25;34.03;;;24.20;50.40;;;;;;5091698;28;20424;-65
2022/05/18 10:49:00;;;;;;;60.80;34.30;;;24.20;50.50;;;;;;5091425;28;20389;-65
2022/05/18 10:51:37;;;;;;;54.80;31.55;;;24.20;50.30;;;;;;5090994;28;20470;-65
2022/05/18 10:54:21;;;;;;;51.50;30.10;;;24.20;50.30;;;;;;5091466;28;20910;-65
2022/05/18 10:56:50;;;;;;;51.78;29.92;;;24.20;50.30;;;;;;5090686;28;20409;-65
2022/05/18 10:59:32;;;;;;;50.70;30.40;;;24.20;50.20;;;;;;5091349;28;20389;-65
2022/05/18 11:02:09;;;;;;;54.38;31.20;;;24.20;50.20;;;;;;5091265;28;20389;-65
2022/05/18 11:05:00;;;;;;;48.55;28.98;;;24.20;50.60;;;;;;5091347;28;20386;-65
2022/05/18 11:07:28;;;;;;;49.10;28.75;;;24.20;50.50;;;;;;5091328;28;20410;-63
2022/05/18 11:09:55;;;;;;;52.20;28.13;;;24.20;50.50;;;;;;5091133;28;20737;-63
2022/05/18 11:12:35;;;;;;;44.78;26.23;;;24.30;51.10;;;;;;5091356;28;20386;-63
2022/05/18 11:15:18;;;;;;;47.08;27.65;;;24.30;50.40;;;;;;5091428;28;20394;-63
2022/05/18 11:18:04;;;;;;;45.53;26.80;;;24.30;50.40;;;;;;5089738;28;20890;-63
2022/05/18 11:21:08;;;;;;;43.30;25.50;;;24.30;50.30;;;;;;5089945;28;20424;-63
2022/05/18 11:23:47;;;;;;;43.75;26.10;;;24.30;50.50;;;;;;5090874;28;20542;-63
2022/05/18 11:26:52;;;;;;;41.25;24.05;;;24.30;50.20;;;;;;5091311;28;20438;-64
2022/05/18 11:29:26;;;;;;;41.53;23.95;;;24.40;50.20;;;;;;5090500;28;20401;-64
2022/05/18 11:32:10;;;;;;;36.78;22.05;;;24.30;50.10;;;;;;5090815;28;20468;-64
2022/05/18 11:34:51;;;;;;;34.35;20.88;;;24.40;50.10;;;;;;5090994;28;20406;-64
2022/05/18 11:37:32;;;;;;;38.85;21.05;;;24.30;49.80;;;;;;5091037;28;20902;-64
2022/05/18 11:40:22;;;;;;;34.33;21.25;;;24.30;49.80;;;;;;5095062;28;20389;-64
2022/05/18 11:43:00;;;;;;;34.50;20.00;;;24.30;49.90;;;;;;5095107;28;20874;-64
2022/05/18 11:45:49;;;;;;;30.73;19.20;;;24.40;49.90;;;;;;5093871;28;20410;-64
2022/05/18 11:48:27;;;;;;;27.70;18.45;;;24.40;49.90;;;;;;5095183;28;20401;-64
2022/05/18 11:51:11;;;;;;;30.57;18.50;;;24.40;49.80;;;;;;5095011;28;20398;-64
2022/05/18 11:54:22;;;;;;;28.70;17.80;;;24.30;49.60;;;;;;5094701;28;20739;-64
2022/05/18 11:57:14;;;;;;;29.35;18.83;;;24.40;49.60;;;;;;5094840;28;20428;-64
2022/05/18 11:59:55;;;;;;;27.90;17.83;;;24.30;49.60;;;;;;5093922;28;20382;-64
2022/05/18 12:02:49;;;;;;;26.67;17.45;;;24.40;49.70;;;;;;5093801;28;20374;-64
2022/05/18 12:05:26;;;;;;;27.52;17.17;;;24.40;49.60;;;;;;5074442;28;20449;-64
2022/05/18 12:08:09;;;;;;;27.80;17.00;;;24.40;49.50;;;;;;5072727;28;20506;-65
2022/05/18 12:10:49;;;;;;;27.02;17.00;;;24.30;49.60;;;;;;5081809;28;21820;-64
2022/05/18 12:13:44;;;;;;;26.25;15.90;;;24.40;49.60;;;;;;5090969;28;20778;-65
2022/05/18 12:16:27;;;;;;;24.50;15.57;;;24.40;50.00;;;;;;5089796;28;20754;-64
2022/05/18 12:19:21;;;;;;;24.70;15.38;;;24.40;49.40;;;;;;5090634;28;20385;-65
2022/05/18 12:21:51;;;;;;;23.17;15.13;;;24.40;49.40;;;;;;5091906;28;20397;-66
2022/05/18 12:24:18;;;;;;;26.42;14.73;;;24.40;49.30;;;;;;5093028;28;20762;-65
2022/05/18 12:26:46;;;;;;;24.05;14.27;;;24.40;49.30;;;;;;5092537;28;20901;-65
2022/05/18 12:29:20;;;;;;;21.50;14.32;;;24.40;49.30;;;;;;5093077;28;20473;-65
2022/05/18 12:31:49;;;;;;;21.02;13.38;;;24.40;49.40;;;;;;5093096;28;20427;-65
2022/05/18 12:34:18;;;;;;;22.98;13.82;;;24.40;49.30;;;;;;5092918;28;20792;-65
2022/05/18 12:36:58;;;;;;;20.40;13.35;;;24.40;49.20;;;;;;5091202;28;20965;-65
2022/05/18 12:39:40;;;;;;;20.15;12.55;;;24.40;49.30;;;;;;5091168;28;20870;-65
2022/05/18 12:42:09;;;;;;;20.60;12.93;;;24.40;49.20;;;;;;5089694;28;20398;-65
2022/05/18 12:44:43;;;;;;;18.80;12.45;;;24.40;49.10;;;;;;5092494;28;20519;-65
2022/05/18 12:47:23;;;;;;;19.73;12.35;;;24.40;49.10;;;;;;5092886;28;20390;-65
2022/05/18 12:50:00;;;;;;;16.57;11.47;;;24.40;49.00;;;;;;5090394;28;20786;-65
2022/05/18 12:52:57;;;;;;;18.40;11.38;;;24.40;49.00;;;;;;5090835;28;20408;-65
2022/05/18 12:55:32;;;;;;;16.60;11.13;;;24.40;48.90;;;;;;5090709;28;20477;-65
2022/05/18 12:58:22;;;;;;;15.80;10.63;;;24.40;48.80;;;;;;5088082;28;20411;-65
2022/05/18 13:01:04;;;;;;;16.20;10.63;;;24.40;48.90;;;;;;5091333;28;20388;-65
2022/05/18 13:03:35;;;;;;;16.05;10.63;;;24.40;48.90;;;;;;5091416;28;20866;-65
2022/05/18 13:06:16;;;;;;;16.35;10.35;;;24.40;48.90;;;;;;5090218;28;20393;-65
2022/05/18 13:08:59;;;;;;;15.82;10.10;;;24.40;48.80;;;;;;5090133;28;20378;-65
2022/05/18 13:11:32;;;;;;;14.88;10.05;;;24.40;48.80;;;;;;5090833;28;20386;-65
2022/05/18 13:14:01;;;;;;;15.00;9.93;;;24.40;48.80;;;;;;5089219;28;20421;-65